Time;durP1;ratioP1;P1;durP2;ratioP2;P2;SDS_P1;SDS_P2;PMS_P1;PMS_P2;Temp;Humidity;BMP_temperature;BMP_pressure;BME280_temperature;BME280_humidity;BME280_pressure;Samples;Min_cycle;Max_cycle;Signal;HPM_P1;HPM_P2
2021/05/31 00:02:26;;;;;;;25.88;13.80;;;;;;;-150.07;54.27;62518.81;5011898;28;20570;-77
2021/05/31 00:04:53;;;;;;;25.48;13.10;;;;;;;-150.07;53.67;62284.38;5011751;28;20384;-78
2021/05/31 00:07:20;;;;;;;16.30;12.98;;;;;;;-150.07;53.12;62608.81;5011948;28;20453;-77
2021/05/31 00:09:55;;;;;;;26.00;13.60;;;;;;;-150.07;52.43;62646.50;5011783;28;20017;-78
2021/05/31 00:12:22;;;;;;;22.63;13.65;;;;;;;-150.07;52.72;62671.59;5012362;28;20033;-76
2021/05/31 00:14:49;;;;;;;25.38;13.02;;;;;;;-150.07;52.40;62738.59;5011884;28;20026;-81
2021/05/31 00:17:17;;;;;;;23.77;13.07;;;;;;;-150.07;52.15;62705.09;5011665;28;20029;-78
2021/05/31 00:19:44;;;;;;;25.73;12.88;;;;;;;-150.07;51.90;62713.47;5011492;28;20038;-78
2021/05/31 00:22:11;;;;;;;25.25;12.90;;;;;;;-150.07;52.48;62608.81;5010293;28;20118;-76
2021/05/31 00:24:38;;;;;;;19.92;12.95;;;;;;;-150.07;52.86;62541.84;5011653;28;20056;-77
2021/05/31 00:27:05;;;;;;;24.55;13.60;;;;;;;-150.07;52.74;62606.72;5011460;28;20392;-78
2021/05/31 00:29:32;;;;;;;21.88;13.07;;;;;;;-150.07;52.05;62575.31;5011163;28;20137;-77
2021/05/31 00:32:00;;;;;;;25.25;12.95;;;;;;;-150.07;52.99;62211.13;5011289;28;20177;-77
2021/05/31 00:34:27;;;;;;;16.58;12.07;;;;;;;-150.07;51.87;62443.47;5011154;28;20537;-78
2021/05/31 00:36:54;;;;;;;23.63;12.10;;;;;;;-150.07;51.91;62579.50;5011443;28;20026;-77
2021/05/31 00:39:22;;;;;;;31.00;13.82;;;;;;;-150.07;51.70;62633.94;5011275;28;20081;-78
2021/05/31 00:41:52;;;;;;;21.88;14.48;;;;;;;-150.07;51.04;62617.19;5011515;28;20029;-77
2021/05/31 00:44:23;;;;;;;24.40;13.45;;;;;;;-150.07;51.96;62485.31;5010958;28;20570;-78
2021/05/31 00:46:52;;;;;;;26.38;13.73;;;;;;;-150.07;52.71;62403.69;4997411;28;20026;-77
2021/05/31 00:49:25;;;;;;;28.58;14.27;;;;;;;-150.07;52.19;62516.72;5011137;28;20108;-77
2021/05/31 00:51:52;;;;;;;23.75;13.57;;;;;;;-150.07;52.55;62504.16;5011028;28;20490;-77
2021/05/31 00:54:21;;;;;;;24.98;13.52;;;;;;;-150.07;52.00;63174.00;5011182;28;20032;-77
2021/05/31 00:56:49;;;;;;;17.38;13.40;;;;;;;-150.07;51.91;62596.25;5010965;28;20022;-77
2021/05/31 00:59:16;;;;;;;20.23;11.63;;;;;;;-150.07;51.40;62569.03;5009751;28;20033;-78
2021/05/31 01:01:43;;;;;;;21.15;11.57;;;;;;;-150.07;51.04;62885.13;4997071;28;20092;-78
2021/05/31 01:04:10;;;;;;;19.63;11.50;;;;;;;-150.07;51.02;62682.06;5010860;28;20072;-77
2021/05/31 01:06:42;;;;;;;18.42;11.80;;;;;;;-150.07;50.94;62717.66;5010654;28;20029;-78
2021/05/31 01:09:17;;;;;;;19.42;11.80;;;;;;;-150.07;50.08;62801.38;5009528;28;20387;-77
2021/05/31 01:11:53;;;;;;;26.95;13.85;;;;;;;-150.07;50.25;62816.03;5010336;28;20084;-77
2021/05/31 01:14:50;;;;;;;22.70;12.20;;;;;;;-150.07;50.56;62682.06;5009699;28;20030;-78
2021/05/31 01:17:17;;;;;;;18.02;12.98;;;;;;;-150.07;49.27;62797.19;5004793;28;20034;-77
2021/05/31 01:20:13;;;;;;;19.95;12.43;;;;;;;-150.07;48.91;62671.59;5010969;28;20030;-77
2021/05/31 01:22:44;;;;;;;26.35;13.57;;;;;;;-150.07;48.65;62805.56;5010879;28;20356;-77
2021/05/31 01:25:22;;;;;;;20.48;12.25;;;;;;;-150.07;49.01;62830.69;5010887;28;20013;-77
2021/05/31 01:28:13;;;;;;;24.45;13.15;;;;;;;-150.07;48.53;62914.41;5010438;28;20501;-76
2021/05/31 01:30:49;;;;;;;28.52;13.68;;;;;;;-150.07;48.38;62809.75;5010619;28;20046;-77
2021/05/31 01:33:20;;;;;;;26.08;13.00;;;;;;;-150.07;47.76;62968.84;5006022;28;20049;-78
2021/05/31 01:35:50;;;;;;;22.45;12.55;;;;;;;-150.07;48.22;62906.06;5002489;28;20029;-76
2021/05/31 01:38:19;;;;;;;16.55;11.65;;;;;;;-150.07;47.83;63002.34;5010584;28;20042;-76
2021/05/31 01:40:50;;;;;;;29.45;15.52;;;;;;;-150.07;48.18;63027.47;5010661;28;20123;-77
2021/05/31 01:43:18;;;;;;;30.05;13.65;;;;;;;-150.07;48.38;62640.22;5010819;28;20088;-77
2021/05/31 01:45:46;;;;;;;22.92;13.55;;;;;;;-150.07;47.77;62908.16;5010550;28;20025;-78
2021/05/31 01:48:14;;;;;;;23.00;12.48;;;;;;;-150.07;47.53;63605.28;5010407;28;20026;-77
2021/05/31 01:50:42;;;;;;;22.45;13.65;;;;;;;-150.07;47.86;62784.63;5010571;28;20018;-78
2021/05/31 01:53:09;;;;;;;25.20;12.35;;;;;;;-150.07;47.37;62987.69;5010685;28;20060;-76
2021/05/31 01:55:38;;;;;;;26.00;14.25;;;;;;;-150.07;46.73;62895.59;5011311;28;20088;-78
2021/05/31 01:58:05;;;;;;;31.38;14.30;;;;;;;-150.07;46.46;62876.75;5012014;28;20063;-77
2021/05/31 02:00:33;;;;;;;28.77;13.27;;;;;;;-150.07;47.50;63136.31;5011976;28;20029;-76
2021/05/31 02:03:02;;;;;;;16.48;12.63;;;;;;;-150.07;48.30;62730.22;5010539;28;20026;-78
2021/05/31 02:05:29;;;;;;;19.40;12.10;;;;;;;-150.07;48.00;63492.22;4996391;28;20018;-77
2021/05/31 02:07:56;;;;;;;25.38;14.32;;;;;;;-150.07;48.36;62998.16;5010230;28;20026;-78
2021/05/31 02:10:23;;;;;;;24.33;14.10;;;;;;;-150.07;47.17;63056.78;5010698;28;20053;-78
2021/05/31 02:12:51;;;;;;;28.13;13.65;;;;;;;-150.07;47.09;63211.69;5013061;28;20391;-77
2021/05/31 02:15:36;;;;;;;15.98;12.00;;;;;;;-150.07;46.87;63171.91;5014890;28;20108;-77
2021/05/31 02:18:14;;;;;;;21.88;12.95;;;;;;;-150.07;46.17;63150.97;5010970;28;20045;-77
2021/05/31 02:20:44;;;;;;;22.15;13.10;;;;;;;-150.07;46.16;63115.38;4997180;28;20472;-78
2021/05/31 02:23:14;;;;;;;17.83;12.40;;;;;;;-150.07;47.24;63081.88;5010087;28;20064;-77
2021/05/31 02:25:42;;;;;;;21.35;13.85;;;;;;;-150.07;47.48;63127.94;5010300;28;20257;-78
2021/05/31 02:28:09;;;;;;;28.85;14.55;;;;;;;-150.07;46.66;63140.50;5012908;28;20065;-76
2021/05/31 02:30:36;;;;;;;26.13;14.18;;;;;;;-150.07;46.70;62860.00;5012255;28;20071;-78
2021/05/31 02:33:05;;;;;;;22.55;13.65;;;;;;;-150.07;47.82;62962.56;5013723;28;20029;-77
2021/05/31 02:35:38;;;;;;;24.73;12.88;;;;;;;-150.07;47.71;63157.25;5008106;28;20153;-78
2021/05/31 02:38:06;;;;;;;19.00;13.10;;;;;;;-150.07;48.00;62931.16;5005899;28;20060;-79
2021/05/31 02:40:36;;;;;;;22.80;14.10;;;;;;;-150.07;47.42;62935.34;5013485;28;20130;-77
2021/05/31 02:43:06;;;;;;;19.50;13.52;;;;;;;-150.07;48.10;62943.72;5014030;28;20030;-77
2021/05/31 02:45:33;;;;;;;25.10;13.07;;;;;;;-150.07;47.88;63462.91;5013479;28;20021;-78
2021/05/31 02:48:01;;;;;;;23.13;12.38;;;;;;;-150.07;46.83;63092.34;5016002;28;20164;-77
2021/05/31 02:50:29;;;;;;;22.23;13.73;;;;;;;-150.07;46.82;63140.50;5014401;28;20497;-78
2021/05/31 02:52:57;;;;;;;18.65;12.95;;;;;;;-150.07;46.65;63146.78;5015209;28;20048;-78
2021/05/31 02:55:26;;;;;;;17.73;12.05;;;;;;;-150.07;46.71;63132.13;5001431;28;20068;-78
2021/05/31 02:57:53;;;;;;;20.75;11.60;;;;;;;-150.07;46.49;63165.63;5014839;28;20018;-78
2021/05/31 03:00:23;;;;;;;17.73;11.68;;;;;;;-150.07;46.40;63293.31;5014838;28;20030;-77
2021/05/31 03:02:50;;;;;;;;;;;;;;;-150.07;45.80;63228.44;5014778;28;20022;-78
2021/05/31 03:05:19;;;;;;;21.58;13.52;;;;;;;-150.07;47.04;63245.19;5014303;28;19944;-78
2021/05/31 03:07:46;;;;;;;26.67;14.52;;;;;;;-150.07;46.20;63228.44;5013074;28;20119;-78
2021/05/31 03:10:16;;;;;;;22.30;14.93;;;;;;;-150.07;46.30;62926.97;5013489;28;20053;-78
2021/05/31 03:12:44;;;;;;;30.63;16.27;;;;;;;-150.07;45.96;63295.41;5013662;28;20317;-78
2021/05/31 03:15:15;;;;;;;28.60;15.73;;;;;;;-150.07;46.33;63232.63;5012767;28;20041;-78
2021/05/31 03:17:43;;;;;;;27.08;14.82;;;;;;;-150.07;46.61;63312.16;5011736;28;20044;-78
2021/05/31 03:20:11;;;;;;;24.10;14.60;;;;;;;-150.07;46.55;63360.31;5013319;28;20026;-78
2021/05/31 03:22:39;;;;;;;22.70;17.25;;;;;;;-150.07;46.49;63299.59;5014179;28;20080;-77
2021/05/31 03:25:07;;;;;;;27.13;16.13;;;;;;;-150.07;46.47;63360.31;5013903;28;20025;-76
2021/05/31 03:27:34;;;;;;;27.02;18.85;;;;;;;-150.07;46.52;63247.28;5011749;28;20032;-77
2021/05/31 03:30:03;;;;;;;27.42;17.55;;;;;;;-150.07;47.28;62993.97;5012694;28;20058;-76
2021/05/31 03:32:30;;;;;;;22.33;16.42;;;;;;;-150.07;47.62;63176.09;5010348;28;20109;-76
2021/05/31 03:34:57;;;;;;;27.90;16.90;;;;;;;-150.07;48.06;63027.47;5012294;28;20037;-79
2021/05/31 03:37:24;;;;;;;26.73;17.80;;;;;;;-150.07;46.92;63027.47;5007087;28;20070;-77
2021/05/31 03:39:51;;;;;;;25.88;16.10;;;;;;;-150.07;47.59;63998.91;5011524;28;21567;-79
2021/05/31 03:42:18;;;;;;;22.45;14.55;;;;;;;-150.07;47.03;63119.56;5012291;28;20430;-77
2021/05/31 03:44:45;;;;;;;41.08;17.33;;;;;;;-150.07;46.58;63209.59;5012766;28;20029;-78
2021/05/31 03:47:12;;;;;;;22.58;15.73;;;;;;;-150.07;46.99;63090.25;5012228;28;20501;-77
2021/05/31 03:49:39;;;;;;;27.25;16.13;;;;;;;-150.07;47.05;63008.63;4995239;28;20038;-78
2021/05/31 03:52:06;;;;;;;23.38;16.98;;;;;;;-150.07;45.48;63098.63;5011971;28;20056;-78
2021/05/31 03:54:33;;;;;;;21.08;15.75;;;;;;;-150.07;45.69;63190.75;5012476;28;20022;-77
2021/05/31 03:57:00;;;;;;;27.67;16.50;;;;;;;-150.07;45.37;63523.63;4997130;28;20105;-78
2021/05/31 03:59:28;;;;;;;31.17;16.83;;;;;;;-150.07;45.92;63395.91;5007653;28;20426;-78
2021/05/31 04:01:55;;;;;;;31.25;18.25;;;;;;;-150.07;45.29;63174.00;5000328;28;20041;-77
2021/05/31 04:04:22;;;;;;;27.48;15.75;;;;;;;-150.07;44.69;63607.38;5010318;28;20026;-77
2021/05/31 04:12:02;;;;;;;28.50;16.55;;;;;;;-150.07;43.60;63885.81;5013082;28;20052;-77
2021/05/31 04:14:28;;;;;;;22.08;15.95;;;;;;;-150.07;44.74;63691.09;5017322;28;20049;-78
2021/05/31 04:16:56;;;;;;;29.20;21.02;;;;;;;-150.07;44.24;63657.59;5002485;28;20029;-77
2021/05/31 04:19:24;;;;;;;27.83;20.60;;;;;;;-150.07;44.28;63412.66;5008310;28;20104;-77
2021/05/31 04:21:54;;;;;;;32.47;20.30;;;;;;;-150.07;42.84;64005.19;5001609;28;20041;-77
2021/05/31 04:24:21;;;;;;;31.73;19.52;;;;;;;-150.07;43.49;63952.84;5010216;28;20026;-77
2021/05/31 04:26:48;;;;;;;33.78;23.45;;;;;;;-150.07;43.15;63544.56;4995664;28;20531;-78
2021/05/31 04:29:16;;;;;;;37.05;22.85;;;;;;;-150.07;42.99;64026.13;4991650;28;20022;-77
2021/05/31 04:31:43;;;;;;;38.28;24.05;;;;;;;-150.07;43.59;63626.22;4992145;28;20076;-77
2021/05/31 04:34:12;;;;;;;35.50;23.10;;;;;;;-150.07;44.02;63906.75;5010039;28;20036;-78
2021/05/31 04:36:43;;;;;;;40.40;28.38;;;;;;;-150.07;44.30;63724.59;5011263;28;20036;-77
2021/05/31 04:39:10;;;;;;;38.80;26.42;;;;;;;-150.07;45.11;63634.59;5008995;28;20049;-78
2021/05/31 04:41:38;;;;;;;34.15;25.80;;;;;;;-150.07;44.98;63756.00;5011045;28;20493;-78
2021/05/31 04:44:06;;;;;;;33.92;24.35;;;;;;;-150.07;44.09;63823.00;5009692;28;20112;-77
2021/05/31 04:46:33;;;;;;;37.95;27.27;;;;;;;-150.07;44.69;63582.25;5010808;28;20052;-78
2021/05/31 04:49:04;;;;;;;28.77;25.63;;;;;;;-150.07;44.88;63739.25;4996933;28;20026;-77
2021/05/31 04:51:32;;;;;;;34.70;27.30;;;;;;;-150.07;44.42;63661.78;4991832;28;20022;-78
2021/05/31 04:53:59;;;;;;;36.33;26.83;;;;;;;-150.07;44.34;63896.28;4991768;28;20041;-78
2021/05/31 04:56:27;;;;;;;33.83;24.92;;;;;;;-150.07;44.32;64566.38;4992289;28;20030;-78
2021/05/31 04:58:54;;;;;;;40.65;27.02;;;;;;;-150.07;43.94;64053.34;4991956;28;20067;-77
2021/05/31 05:01:21;;;;;;;38.67;26.88;;;;;;;-150.07;43.34;64744.38;5012400;28;20502;-78
2021/05/31 05:03:48;;;;;;;38.83;27.13;;;;;;;-150.07;43.63;64748.56;5022472;28;20030;-78
2021/05/31 05:06:15;;;;;;;37.92;24.70;;;;;;;-150.07;43.12;63961.22;5019095;28;20483;-78
2021/05/31 05:08:42;;;;;;;41.28;24.95;;;;;;;-150.07;42.94;64421.88;5022153;28;20089;-78
2021/05/31 05:11:08;;;;;;;35.67;21.02;;;;;;;-150.07;44.29;64003.09;4998296;28;20034;-77
2021/05/31 05:13:35;;;;;;;30.40;20.70;;;;;;;-150.07;42.79;64137.09;4995195;28;20375;-78
2021/05/31 05:16:02;;;;;;;28.85;18.13;;;;;;;-150.07;43.26;64685.75;4994937;28;20038;-76
2021/05/31 05:18:29;;;;;;;31.05;18.73;;;;;;;-150.07;43.80;63856.50;5016131;28;20026;-82
2021/05/31 05:20:57;;;;;;;26.40;18.73;;;;;;;-150.07;44.60;63881.63;5019406;28;20026;-78
2021/05/31 05:23:24;;;;;;;23.13;17.05;;;;;;;-150.07;43.76;63559.22;5012508;28;20022;-78
2021/05/31 05:25:50;;;;;;;26.50;17.27;;;;;;;-150.07;43.21;64849.09;5012318;28;20019;-76
2021/05/31 05:28:17;;;;;;;24.85;16.75;;;;;;;-150.07;42.93;64153.84;5008847;28;20042;-76
2021/05/31 05:30:44;;;;;;;28.05;17.35;;;;;;;-150.07;42.70;64218.75;5007590;28;20090;-78
2021/05/31 05:33:11;;;;;;;22.80;15.52;;;;;;;-150.07;43.43;64074.28;4999197;28;20014;-78
2021/05/31 05:35:45;;;;;;;20.92;15.32;;;;;;;-150.07;42.77;63848.13;5002274;28;20030;-78
2021/05/31 05:48:33;;;;;;;23.45;16.80;;;;;;;-150.07;44.15;64017.75;4991803;28;20058;-76
2021/05/31 05:51:08;;;;;;;26.25;16.70;;;;;;;-150.07;43.69;63977.97;5004874;28;20030;-76
2021/05/31 05:53:43;;;;;;;23.63;14.75;;;;;;;-150.07;43.53;63990.53;4991072;28;20019;-77
2021/05/31 05:56:15;;;;;;;24.35;16.15;;;;;;;-150.07;43.86;63852.31;5004154;28;20025;-77
2021/05/31 05:58:43;;;;;;;25.83;16.75;;;;;;;-150.07;45.26;63743.44;5007731;28;20030;-78
2021/05/31 06:01:12;;;;;;;31.13;17.83;;;;;;;-150.07;44.96;64618.72;5010389;28;20063;-78
2021/05/31 06:03:39;;;;;;;29.65;18.05;;;;;;;-150.07;44.27;63894.19;5025694;28;20025;-78
2021/05/31 06:06:07;;;;;;;28.60;18.25;;;;;;;-150.07;44.52;63651.31;5020845;28;20030;-78
2021/05/31 06:08:35;;;;;;;26.17;18.08;;;;;;;-150.07;44.96;64666.91;4994363;28;20145;-78
2021/05/31 06:11:03;;;;;;;36.13;17.90;;;;;;;-150.07;44.42;63873.25;5004122;28;20061;-78
2021/05/31 06:13:31;;;;;;;27.27;17.67;;;;;;;-150.07;44.57;64036.59;5012961;28;20022;-78
2021/05/31 06:16:02;;;;;;;30.73;18.17;;;;;;;-150.07;44.17;64698.31;5007751;28;20041;-78
2021/05/31 06:18:29;;;;;;;31.58;16.35;;;;;;;-150.07;44.76;63944.47;5008499;28;20168;-77
2021/05/31 06:20:57;;;;;;;25.33;15.32;;;;;;;-150.07;44.43;64044.97;5014206;28;20109;-78
2021/05/31 06:23:27;;;;;;;30.13;17.50;;;;;;;-150.07;44.17;63887.91;5014533;28;20109;-76
2021/05/31 06:25:55;;;;;;;24.85;15.10;;;;;;;-150.07;44.60;63661.78;5013390;28;20029;-78
2021/05/31 06:28:22;;;;;;;30.25;15.35;;;;;;;-150.07;45.36;63898.38;5010168;28;20865;-78
2021/05/31 06:30:49;;;;;;;23.70;15.77;;;;;;;-150.07;44.83;64049.16;5014143;28;20030;-76
2021/05/31 06:33:18;;;;;;;35.78;17.67;;;;;;;-150.07;44.92;63823.00;5014257;28;20028;-78
2021/05/31 06:35:45;;;;;;;39.78;17.25;;;;;;;-150.07;44.78;63936.09;5011190;28;20092;-80
2021/05/31 06:38:12;;;;;;;27.52;17.05;;;;;;;-150.07;44.53;63959.09;5004805;28;20050;-76
2021/05/31 06:40:43;;;;;;;37.83;18.15;;;;;;;-150.07;44.25;64363.25;5013653;28;20026;-78
2021/05/31 06:43:10;;;;;;;33.03;17.63;;;;;;;-150.07;43.83;63969.59;5014069;28;20022;-76
2021/05/31 06:45:37;;;;;;;28.95;16.67;;;;;;;-150.07;45.49;63779.03;5013652;28;20475;-77
2021/05/31 06:48:05;;;;;;;35.78;17.33;;;;;;;-150.07;44.50;63728.78;5011917;28;20044;-77
2021/05/31 06:50:34;;;;;;;29.17;16.48;;;;;;;-150.07;44.44;63982.16;5013378;28;20050;-79
2021/05/31 06:53:02;;;;;;;37.03;15.40;;;;;;;-150.07;44.29;64126.63;5014217;28;20065;-77
2021/05/31 06:55:31;;;;;;;28.45;16.48;;;;;;;-150.07;43.89;64139.19;5012124;28;20371;-79
2021/05/31 06:57:59;;;;;;;26.58;16.52;;;;;;;-150.07;44.24;64057.53;5005257;28;20058;-77
2021/05/31 07:00:27;;;;;;;24.00;15.95;;;;;;;-150.07;44.08;64614.53;4997796;28;20159;-78
2021/05/31 07:02:55;;;;;;;26.50;15.75;;;;;;;-150.07;44.23;64047.06;5013103;28;20028;-78
2021/05/31 07:05:22;;;;;;;21.23;14.20;;;;;;;-150.07;43.96;64302.50;5013137;28;20025;-77
2021/05/31 07:07:52;;;;;;;27.17;15.68;;;;;;;-150.07;44.07;63902.56;4994372;28;20046;-78
2021/05/31 07:10:24;;;;;;;25.92;13.93;;;;;;;-150.07;44.37;63946.56;5010175;28;20058;-77
2021/05/31 07:12:51;;;;;;;26.30;15.20;;;;;;;-150.07;44.98;63923.50;5027532;28;20038;-79
2021/05/31 07:15:19;;;;;;;24.08;15.68;;;;;;;-150.07;44.71;63969.59;5027877;28;20034;-78
2021/05/31 07:17:47;;;;;;;30.02;14.05;;;;;;;-150.07;44.51;63689.00;5021830;28;20135;-76
2021/05/31 07:20:15;;;;;;;22.17;15.35;;;;;;;-150.07;44.20;63982.16;5027781;28;20164;-78
2021/05/31 07:22:44;;;;;;;24.60;13.65;;;;;;;-150.07;44.57;63923.50;5027302;28;20159;-76
2021/05/31 07:25:16;;;;;;;22.77;13.82;;;;;;;-150.07;44.24;64011.47;5022346;28;20037;-76
2021/05/31 07:27:44;;;;;;;19.27;13.82;;;;;;;-150.07;44.23;63825.09;5026929;28;20034;-76
2021/05/31 07:30:12;;;;;;;20.83;13.25;;;;;;;-150.07;44.61;63898.38;5027293;28;20037;-78
2021/05/31 07:32:39;;;;;;;23.92;14.00;;;;;;;-150.07;44.65;63860.69;5023642;28;20491;-78
2021/05/31 07:35:08;;;;;;;16.05;11.55;;;;;;;-150.07;44.16;63670.16;5015572;28;20029;-78
2021/05/31 07:37:36;;;;;;;23.15;13.32;;;;;;;-150.07;44.63;63881.63;5016573;28;20501;-79
2021/05/31 07:40:06;;;;;;;20.48;14.80;;;;;;;-150.07;44.35;63578.06;5014005;28;20042;-77
2021/05/31 07:42:32;;;;;;;22.98;13.57;;;;;;;-150.07;44.98;63659.69;5012986;28;20471;-78
2021/05/31 07:44:59;;;;;;;25.25;13.48;;;;;;;-150.07;44.76;63584.34;5012619;28;20482;-77
2021/05/31 07:47:26;;;;;;;22.15;12.82;;;;;;;-150.07;44.15;63848.13;5013848;28;20026;-77
2021/05/31 07:49:55;;;;;;;22.23;12.80;;;;;;;-150.07;44.57;63764.38;5013132;28;20474;-78
2021/05/31 07:52:25;;;;;;;26.90;12.45;;;;;;;-150.07;44.52;64051.25;5012978;28;20034;-78
2021/05/31 07:54:52;;;;;;;21.83;12.45;;;;;;;-150.07;44.30;63898.38;5013169;28;20695;-77
2021/05/31 07:57:21;;;;;;;17.27;11.57;;;;;;;-150.07;44.44;63709.94;5013502;28;20022;-77
2021/05/31 07:59:51;;;;;;;20.25;12.02;;;;;;;-150.07;44.42;64503.53;5012868;28;20026;-77
2021/05/31 08:02:18;;;;;;;23.10;13.02;;;;;;;-150.07;45.08;63513.16;5013319;28;20033;-78
2021/05/31 08:04:45;;;;;;;20.63;12.27;;;;;;;-150.07;45.38;63638.78;5013516;28;20080;-77
2021/05/31 08:07:13;;;;;;;31.35;13.43;;;;;;;-150.07;45.36;63630.38;5013543;28;20025;-77
2021/05/31 08:09:40;;;;;;;22.02;13.38;;;;;;;-150.07;45.55;63515.25;5011450;28;20022;-77
2021/05/31 08:12:08;;;;;;;22.85;13.32;;;;;;;-150.07;45.68;63609.47;5012947;28;20030;-78
2021/05/31 08:14:35;;;;;;;18.05;12.38;;;;;;;-150.07;46.12;63584.34;5012332;28;20022;-77
2021/05/31 08:17:02;;;;;;;27.20;15.15;;;;;;;-150.07;46.87;63479.66;5011481;28;20121;-79
2021/05/31 08:19:31;;;;;;;32.05;16.65;;;;;;;-150.07;48.10;63818.81;5006175;28;20027;-78
2021/05/31 08:22:00;;;;;;;25.17;17.35;;;;;;;-150.07;47.59;63328.91;5007126;28;20034;-76
2021/05/31 08:24:27;;;;;;;26.67;17.27;;;;;;;-150.07;47.55;63362.41;4999791;28;20056;-80
2021/05/31 08:26:54;;;;;;;30.90;17.42;;;;;;;-150.07;47.59;63224.25;5012371;28;20030;-80
2021/05/31 08:29:21;;;;;;;24.90;18.05;;;;;;;-150.07;48.37;62860.00;5012225;28;20052;-77
2021/05/31 08:31:50;;;;;;;28.15;19.17;;;;;;;-150.07;48.85;63130.03;5011259;28;20033;-77
2021/05/31 08:34:17;;;;;;;36.92;20.35;;;;;;;-150.07;48.91;63054.69;5006985;28;20033;-78
2021/05/31 08:36:47;;;;;;;32.53;20.13;;;;;;;-150.07;49.37;63035.84;5005655;28;20026;-77
2021/05/31 08:39:13;;;;;;;;;;;;;;;-150.07;49.34;63027.47;5007549;28;20045;-77
2021/05/31 08:41:40;;;;;;;29.05;21.88;;;;;;;-150.07;49.39;62686.25;4991751;28;19925;-78
2021/05/31 08:44:07;;;;;;;35.25;20.83;;;;;;;-150.07;49.54;63676.44;4992024;28;20084;-78
2021/05/31 08:46:39;;;;;;;28.15;19.48;;;;;;;-150.07;49.88;62730.22;5010633;28;20471;-78
2021/05/31 08:49:09;;;;;;;30.23;20.92;;;;;;;-150.07;49.37;63048.41;5009688;28;20036;-78
2021/05/31 08:51:38;;;;;;;39.28;21.45;;;;;;;-150.07;50.69;63496.41;4992432;28;20050;-76
2021/05/31 08:54:07;;;;;;;38.17;22.13;;;;;;;-150.07;51.18;62776.28;5008411;28;20084;-78
2021/05/31 08:56:34;;;;;;;33.38;20.92;;;;;;;-150.07;51.48;62847.44;5007938;28;20591;-78
2021/05/31 08:59:02;;;;;;;29.35;19.42;;;;;;;-150.07;51.41;62864.19;5010531;28;20042;-77
2021/05/31 09:01:29;;;;;;;30.15;19.10;;;;;;;-150.07;51.00;62993.97;5006856;28;20037;-77
2021/05/31 09:03:57;;;;;;;36.72;22.10;;;;;;;-150.07;50.96;63622.03;5009586;28;20113;-76
2021/05/31 09:06:27;;;;;;;34.30;20.27;;;;;;;-150.07;50.81;63023.28;5010293;28;20033;-77
2021/05/31 09:09:00;;;;;;;34.22;19.83;;;;;;;-150.07;50.83;63033.75;5010570;28;20065;-76
2021/05/31 09:11:28;;;;;;;29.17;19.63;;;;;;;-150.07;50.23;63037.94;5011096;28;20026;-76
2021/05/31 09:13:57;;;;;;;31.48;18.27;;;;;;;-150.07;50.61;62956.28;5009960;28;20453;-76
2021/05/31 09:16:29;;;;;;;33.80;20.50;;;;;;;-150.07;50.61;62956.28;5011149;28;20042;-76
2021/05/31 09:18:59;;;;;;;31.73;19.85;;;;;;;-150.07;50.22;63069.31;5009745;28;20037;-76
2021/05/31 09:21:31;;;;;;;29.35;18.95;;;;;;;-150.07;50.67;63098.63;5010074;28;20038;-82
2021/05/31 09:24:24;;;;;;;31.58;20.65;;;;;;;-150.07;50.26;63040.03;5002415;28;20026;-82
2021/05/31 09:26:56;;;;;;;32.97;16.90;;;;;;;-150.07;50.51;62734.41;5014081;28;20034;-84
2021/05/31 09:29:23;;;;;;;31.83;19.52;;;;;;;-150.07;49.92;62895.59;5008964;28;20034;-84
2021/05/31 09:32:01;;;;;;;29.08;17.67;;;;;;;-150.07;50.78;63169.81;5009163;28;20058;-83
2021/05/31 09:34:28;;;;;;;27.33;18.50;;;;;;;-150.07;51.09;62822.31;5004482;28;20041;-85
2021/05/31 09:36:59;;;;;;;30.38;20.27;;;;;;;-150.07;51.30;62721.84;5009709;28;20021;-85
2021/05/31 09:39:33;;;;;;;27.80;18.10;;;;;;;-150.07;51.77;62755.34;5010731;28;20041;-84
2021/05/31 09:42:16;;;;;;;26.52;17.60;;;;;;;-150.07;50.76;63067.22;5014465;28;20118;-82
2021/05/31 09:45:00;;;;;;;30.20;18.30;;;;;;;-150.07;50.69;63063.06;5007515;28;20042;-83
2021/05/31 09:47:29;;;;;;;33.40;16.52;;;;;;;-150.07;50.46;63019.09;4994988;28;20027;-83
2021/05/31 09:49:56;;;;;;;37.58;19.45;;;;;;;-150.07;50.58;63073.50;5023318;28;20036;-83
2021/05/31 09:52:23;;;;;;;30.13;17.48;;;;;;;-150.07;50.25;62797.19;5023668;28;20038;-82
2021/05/31 09:54:52;;;;;;;29.45;17.67;;;;;;;-150.07;50.11;63138.41;5012541;28;20495;-82
2021/05/31 09:57:19;;;;;;;32.30;16.47;;;;;;;-150.07;50.08;63127.94;4998790;28;20048;-80
2021/05/31 09:59:50;;;;;;;24.42;17.38;;;;;;;-150.07;49.99;63130.03;5018376;28;20025;-80
2021/05/31 10:02:24;;;;;;;26.20;17.40;;;;;;;-150.07;49.57;63150.97;5014061;28;20022;-81
2021/05/31 10:05:05;;;;;;;28.25;17.63;;;;;;;-150.07;49.73;62721.84;5007967;28;20037;-82
2021/05/31 10:10:00;;;;;;;27.70;17.30;;;;;;;-150.07;49.55;63186.56;5015853;28;20030;-81
2021/05/31 10:12:28;;;;;;;33.10;16.45;;;;;;;-150.07;49.93;63109.09;5018082;28;20022;-81
2021/05/31 10:14:56;;;;;;;27.48;17.08;;;;;;;-150.07;49.93;63123.75;5017173;28;20048;-82
2021/05/31 10:17:24;;;;;;;33.70;17.50;;;;;;;-150.07;49.60;63153.06;5016232;28;20041;-81
2021/05/31 10:19:51;;;;;;;25.95;15.90;;;;;;;-150.07;49.74;63008.63;5016399;28;20053;-84
2021/05/31 10:22:19;;;;;;;30.27;16.13;;;;;;;-150.07;49.69;63575.97;5003332;28;20038;-81
2021/05/31 10:24:50;;;;;;;23.95;15.60;;;;;;;-150.07;49.95;63102.81;5012850;28;20026;-81
2021/05/31 10:27:18;;;;;;;23.17;15.32;;;;;;;-150.07;50.21;63019.09;5032302;28;20552;-79
2021/05/31 10:29:46;;;;;;;23.23;14.98;;;;;;;-150.07;49.97;62811.84;5007452;28;20042;-80
2021/05/31 10:32:13;;;;;;;21.48;14.90;;;;;;;-150.07;49.76;62717.66;5012025;28;20064;-81
2021/05/31 10:34:53;;;;;;;21.02;15.02;;;;;;;-150.07;49.49;62740.69;5008951;28;20395;-81
2021/05/31 10:37:22;;;;;;;23.23;15.63;;;;;;;-150.07;49.73;63751.81;5009827;28;20014;-80
2021/05/31 10:40:10;;;;;;;21.50;15.13;;;;;;;-150.07;49.70;63102.81;5008070;28;20068;-80
2021/05/31 10:42:49;;;;;;;19.10;13.45;;;;;;;-150.07;49.47;63107.00;5028474;28;20062;-81
2021/05/31 10:45:26;;;;;;;24.10;14.20;;;;;;;-150.07;49.65;63115.38;5023200;28;20034;-81
2021/05/31 10:48:17;;;;;;;23.60;15.27;;;;;;;-150.07;49.80;63117.47;5025839;28;20069;-80
2021/05/31 10:50:48;;;;;;;25.13;15.70;;;;;;;-150.07;50.03;63111.19;5005789;28;20069;-81
2021/05/31 10:53:31;;;;;;;25.42;16.02;;;;;;;-150.07;50.37;63081.88;5035442;28;20014;-81
2021/05/31 10:56:25;;;;;;;22.90;15.57;;;;;;;-150.07;50.36;63033.75;5032973;28;20408;-79
2021/05/31 10:58:55;;;;;;;21.58;15.68;;;;;;;-150.07;50.61;62726.03;5022175;28;20033;-80
2021/05/31 11:01:27;;;;;;;;;;;;;;;-150.07;51.10;63052.59;5022153;28;20018;-81
2021/05/31 11:04:10;;;;;;;22.20;17.80;;;;;;;-150.07;51.17;62960.47;5013025;28;19936;-81
2021/05/31 11:06:40;;;;;;;24.48;15.80;;;;;;;-150.07;50.76;63052.59;5012133;28;20033;-81
2021/05/31 11:09:20;;;;;;;27.35;16.40;;;;;;;-150.07;51.20;63663.88;5013908;28;20021;-82
2021/05/31 11:11:54;;;;;;;28.38;18.35;;;;;;;-150.07;51.58;62761.63;5013265;28;20025;-78
2021/05/31 11:14:39;;;;;;;25.40;18.30;;;;;;;-150.07;51.47;63647.13;5013314;28;20507;-81
2021/05/31 11:17:10;;;;;;;29.83;19.10;;;;;;;-150.07;52.00;62770.00;5009594;28;20088;-81
2021/05/31 11:19:45;;;;;;;30.15;18.85;;;;;;;-150.07;51.29;63035.84;5012775;28;20429;-81
2021/05/31 11:22:23;;;;;;;26.73;17.20;;;;;;;-150.07;51.88;62901.88;5010255;28;20038;-82
2021/05/31 11:24:54;;;;;;;28.80;17.00;;;;;;;-150.07;52.12;62941.63;5013866;28;20113;-81
2021/05/31 11:27:34;;;;;;;26.40;17.60;;;;;;;-150.07;52.38;62813.94;5012581;28;20034;-80
2021/05/31 11:30:08;;;;;;;28.35;17.67;;;;;;;-150.07;51.96;62947.91;5012397;28;20030;-80
2021/05/31 11:32:36;;;;;;;22.48;17.73;;;;;;;-150.07;52.01;62679.97;5002360;28;20572;-81